sensor_id;sensor_type;location;lat;lon;timestamp;P1;durP1;ratioP1;P2;durP2;ratioP2
13469;SDS011;6807;48.682;9.032;2023-04-24T00:01:01;2.03;;;1.45;;
13469;SDS011;6807;48.682;9.032;2023-04-24T00:03:29;3.17;;;1.77;;
13469;SDS011;6807;48.682;9.032;2023-04-24T00:05:57;3.08;;;1.38;;
13469;SDS011;6807;48.682;9.032;2023-04-24T00:08:25;1.73;;;1.50;;
13469;SDS011;6807;48.682;9.032;2023-04-24T00:10:52;1.77;;;1.50;;
13469;SDS011;6807;48.682;9.032;2023-04-24T00:13:19;1.60;;;1.50;;
13469;SDS011;6807;48.682;9.032;2023-04-24T00:15:46;2.53;;;1.50;;
13469;SDS011;6807;48.682;9.032;2023-04-24T00:18:13;1.70;;;1.60;;
13469;SDS011;6807;48.682;9.032;2023-04-24T00:20:41;3.28;;;1.42;;
13469;SDS011;6807;48.682;9.032;2023-04-24T00:23:09;1.65;;;1.50;;
13469;SDS011;6807;48.682;9.032;2023-04-24T00:25:36;1.65;;;1.50;;
13469;SDS011;6807;48.682;9.032;2023-04-24T00:28:02;1.60;;;1.50;;
13469;SDS011;6807;48.682;9.032;2023-04-24T00:30:29;1.60;;;1.50;;
13469;SDS011;6807;48.682;9.032;2023-04-24T00:32:56;3.15;;;1.55;;
13469;SDS011;6807;48.682;9.032;2023-04-24T00:35:23;2.03;;;1.50;;
13469;SDS011;6807;48.682;9.032;2023-04-24T00:37:52;2.92;;;1.55;;
13469;SDS011;6807;48.682;9.032;2023-04-24T00:40:19;2.40;;;1.40;;
13469;SDS011;6807;48.682;9.032;2023-04-24T00:42:46;1.75;;;1.35;;
13469;SDS011;6807;48.682;9.032;2023-04-24T00:45:12;3.35;;;1.70;;
13469;SDS011;6807;48.682;9.032;2023-04-24T00:47:39;1.40;;;1.30;;
13469;SDS011;6807;48.682;9.032;2023-04-24T00:50:08;1.60;;;1.40;;
13469;SDS011;6807;48.682;9.032;2023-04-24T00:52:36;2.20;;;1.50;;
13469;SDS011;6807;48.682;9.032;2023-04-24T00:55:07;1.75;;;1.60;;
13469;SDS011;6807;48.682;9.032;2023-04-24T00:57:35;1.45;;;1.30;;
13469;SDS011;6807;48.682;9.032;2023-04-24T01:00:02;2.05;;;1.60;;
13469;SDS011;6807;48.682;9.032;2023-04-24T01:02:32;1.50;;;1.40;;
13469;SDS011;6807;48.682;9.032;2023-04-24T01:05:00;1.77;;;1.42;;
13469;SDS011;6807;48.682;9.032;2023-04-24T01:07:27;1.55;;;1.42;;
13469;SDS011;6807;48.682;9.032;2023-04-24T01:09:55;1.35;;;1.25;;
13469;SDS011;6807;48.682;9.032;2023-04-24T01:12:23;1.50;;;1.40;;
13469;SDS011;6807;48.682;9.032;2023-04-24T01:14:50;2.13;;;1.60;;
13469;SDS011;6807;48.682;9.032;2023-04-24T01:17:18;1.38;;;1.30;;
13469;SDS011;6807;48.682;9.032;2023-04-24T01:19:45;2.05;;;1.42;;
13469;SDS011;6807;48.682;9.032;2023-04-24T01:22:14;2.55;;;1.33;;
13469;SDS011;6807;48.682;9.032;2023-04-24T01:24:41;1.75;;;1.40;;
13469;SDS011;6807;48.682;9.032;2023-04-24T01:27:09;3.47;;;1.42;;
13469;SDS011;6807;48.682;9.032;2023-04-24T01:29:36;1.75;;;1.30;;
13469;SDS011;6807;48.682;9.032;2023-04-24T01:32:04;2.83;;;1.40;;
13469;SDS011;6807;48.682;9.032;2023-04-24T01:34:32;2.97;;;1.45;;
13469;SDS011;6807;48.682;9.032;2023-04-24T01:36:59;1.73;;;1.20;;
13469;SDS011;6807;48.682;9.032;2023-04-24T01:39:28;1.50;;;1.40;;
13469;SDS011;6807;48.682;9.032;2023-04-24T01:41:55;2.88;;;1.58;;
13469;SDS011;6807;48.682;9.032;2023-04-24T01:44:22;1.60;;;1.50;;
13469;SDS011;6807;48.682;9.032;2023-04-24T01:46:49;2.13;;;1.90;;
13469;SDS011;6807;48.682;9.032;2023-04-24T01:49:16;2.70;;;1.50;;
13469;SDS011;6807;48.682;9.032;2023-04-24T01:51:43;1.50;;;1.30;;
13469;SDS011;6807;48.682;9.032;2023-04-24T01:54:10;2.58;;;1.55;;
13469;SDS011;6807;48.682;9.032;2023-04-24T01:56:39;1.48;;;1.38;;
13469;SDS011;6807;48.682;9.032;2023-04-24T01:59:08;1.58;;;1.48;;
13469;SDS011;6807;48.682;9.032;2023-04-24T02:01:36;1.67;;;1.30;;
13469;SDS011;6807;48.682;9.032;2023-04-24T02:04:03;1.63;;;1.27;;
13469;SDS011;6807;48.682;9.032;2023-04-24T02:06:31;2.30;;;1.58;;
13469;SDS011;6807;48.682;9.032;2023-04-24T02:08:58;2.33;;;1.40;;
13469;SDS011;6807;48.682;9.032;2023-04-24T02:11:25;2.28;;;1.83;;
13469;SDS011;6807;48.682;9.032;2023-04-24T02:13:53;4.53;;;1.50;;
13469;SDS011;6807;48.682;9.032;2023-04-24T02:16:20;1.50;;;1.40;;
13469;SDS011;6807;48.682;9.032;2023-04-24T02:18:47;2.33;;;1.40;;
13469;SDS011;6807;48.682;9.032;2023-04-24T02:21:14;2.22;;;1.40;;
13469;SDS011;6807;48.682;9.032;2023-04-24T02:23:41;1.52;;;1.25;;
13469;SDS011;6807;48.682;9.032;2023-04-24T02:26:08;4.07;;;1.40;;
13469;SDS011;6807;48.682;9.032;2023-04-24T02:28:35;1.73;;;1.42;;
13469;SDS011;6807;48.682;9.032;2023-04-24T02:31:04;1.55;;;1.35;;
13469;SDS011;6807;48.682;9.032;2023-04-24T02:33:31;1.40;;;1.30;;
13469;SDS011;6807;48.682;9.032;2023-04-24T02:35:58;3.63;;;1.63;;
13469;SDS011;6807;48.682;9.032;2023-04-24T02:38:25;2.53;;;1.52;;
13469;SDS011;6807;48.682;9.032;2023-04-24T02:40:52;1.90;;;1.70;;
13469;SDS011;6807;48.682;9.032;2023-04-24T02:43:19;1.67;;;1.40;;
13469;SDS011;6807;48.682;9.032;2023-04-24T02:45:46;1.60;;;1.50;;
13469;SDS011;6807;48.682;9.032;2023-04-24T02:48:14;3.00;;;1.25;;
13469;SDS011;6807;48.682;9.032;2023-04-24T02:50:42;2.63;;;1.70;;
13469;SDS011;6807;48.682;9.032;2023-04-24T02:53:08;3.40;;;1.50;;
13469;SDS011;6807;48.682;9.032;2023-04-24T02:55:35;1.90;;;1.73;;
13469;SDS011;6807;48.682;9.032;2023-04-24T02:58:02;2.42;;;1.40;;
13469;SDS011;6807;48.682;9.032;2023-04-24T03:00:29;1.60;;;1.50;;
13469;SDS011;6807;48.682;9.032;2023-04-24T03:02:56;1.65;;;1.55;;
13469;SDS011;6807;48.682;9.032;2023-04-24T03:05:24;3.90;;;1.75;;
13469;SDS011;6807;48.682;9.032;2023-04-24T03:07:52;1.92;;;1.50;;
13469;SDS011;6807;48.682;9.032;2023-04-24T03:10:19;1.52;;;1.40;;
13469;SDS011;6807;48.682;9.032;2023-04-24T03:12:47;1.75;;;1.65;;
13469;SDS011;6807;48.682;9.032;2023-04-24T03:15:14;1.65;;;1.35;;
13469;SDS011;6807;48.682;9.032;2023-04-24T03:17:41;2.45;;;1.58;;
13469;SDS011;6807;48.682;9.032;2023-04-24T03:20:08;2.45;;;1.42;;
13469;SDS011;6807;48.682;9.032;2023-04-24T03:22:37;1.73;;;1.63;;
13469;SDS011;6807;48.682;9.032;2023-04-24T03:25:04;1.80;;;1.55;;
13469;SDS011;6807;48.682;9.032;2023-04-24T03:27:33;1.50;;;1.40;;
13469;SDS011;6807;48.682;9.032;2023-04-24T03:30:00;2.22;;;1.30;;
13469;SDS011;6807;48.682;9.032;2023-04-24T03:32:27;1.50;;;1.40;;
13469;SDS011;6807;48.682;9.032;2023-04-24T03:34:54;2.55;;;1.67;;
13469;SDS011;6807;48.682;9.032;2023-04-24T03:37:21;1.48;;;1.38;;
13469;SDS011;6807;48.682;9.032;2023-04-24T03:39:49;2.30;;;2.03;;
13469;SDS011;6807;48.682;9.032;2023-04-24T03:42:16;1.45;;;1.35;;
13469;SDS011;6807;48.682;9.032;2023-04-24T03:44:42;1.83;;;1.50;;
13469;SDS011;6807;48.682;9.032;2023-04-24T03:47:09;2.75;;;1.50;;
13469;SDS011;6807;48.682;9.032;2023-04-24T03:49:36;1.40;;;1.30;;
13469;SDS011;6807;48.682;9.032;2023-04-24T03:52:03;1.30;;;1.20;;
13469;SDS011;6807;48.682;9.032;2023-04-24T03:54:30;3.40;;;1.48;;
13469;SDS011;6807;48.682;9.032;2023-04-24T03:56:58;1.88;;;1.48;;
13469;SDS011;6807;48.682;9.032;2023-04-24T03:59:26;4.22;;;1.50;;
13469;SDS011;6807;48.682;9.032;2023-04-24T04:01:53;2.85;;;1.25;;
13469;SDS011;6807;48.682;9.032;2023-04-24T04:04:20;1.88;;;1.33;;
13469;SDS011;6807;48.682;9.032;2023-04-24T04:06:47;1.40;;;1.30;;
13469;SDS011;6807;48.682;9.032;2023-04-24T04:09:14;1.63;;;1.40;;
13469;SDS011;6807;48.682;9.032;2023-04-24T04:11:41;2.08;;;1.30;;
13469;SDS011;6807;48.682;9.032;2023-04-24T04:14:10;1.63;;;1.20;;
13469;SDS011;6807;48.682;9.032;2023-04-24T04:16:37;1.42;;;1.30;;
13469;SDS011;6807;48.682;9.032;2023-04-24T04:19:04;1.63;;;1.52;;
13469;SDS011;6807;48.682;9.032;2023-04-24T04:21:31;1.35;;;1.25;;
13469;SDS011;6807;48.682;9.032;2023-04-24T04:23:58;1.30;;;1.10;;
13469;SDS011;6807;48.682;9.032;2023-04-24T04:26:25;1.42;;;1.30;;
13469;SDS011;6807;48.682;9.032;2023-04-24T04:28:52;2.47;;;1.30;;
13469;SDS011;6807;48.682;9.032;2023-04-24T04:31:20;1.70;;;1.60;;
13469;SDS011;6807;48.682;9.032;2023-04-24T04:33:48;1.50;;;1.40;;
13469;SDS011;6807;48.682;9.032;2023-04-24T04:36:15;2.13;;;1.50;;
13469;SDS011;6807;48.682;9.032;2023-04-24T04:38:42;1.60;;;1.50;;
13469;SDS011;6807;48.682;9.032;2023-04-24T04:41:09;1.92;;;1.77;;
13469;SDS011;6807;48.682;9.032;2023-04-24T04:43:37;1.80;;;1.70;;
13469;SDS011;6807;48.682;9.032;2023-04-24T04:46:05;2.03;;;1.85;;
13469;SDS011;6807;48.682;9.032;2023-04-24T04:48:34;2.00;;;1.80;;
13469;SDS011;6807;48.682;9.032;2023-04-24T04:51:01;2.75;;;1.90;;
13469;SDS011;6807;48.682;9.032;2023-04-24T04:53:28;2.03;;;1.92;;
13469;SDS011;6807;48.682;9.032;2023-04-24T04:55:55;2.22;;;2.00;;
13469;SDS011;6807;48.682;9.032;2023-04-24T04:58:22;2.45;;;2.00;;
13469;SDS011;6807;48.682;9.032;2023-04-24T05:00:49;2.88;;;1.88;;
13469;SDS011;6807;48.682;9.032;2023-04-24T05:03:18;2.53;;;2.08;;
13469;SDS011;6807;48.682;9.032;2023-04-24T05:05:46;2.10;;;1.88;;
13469;SDS011;6807;48.682;9.032;2023-04-24T05:08:13;1.90;;;1.80;;
13469;SDS011;6807;48.682;9.032;2023-04-24T05:10:40;2.15;;;2.00;;
13469;SDS011;6807;48.682;9.032;2023-04-24T05:13:07;1.90;;;1.80;;
13469;SDS011;6807;48.682;9.032;2023-04-24T05:15:34;2.78;;;2.45;;
13469;SDS011;6807;48.682;9.032;2023-04-24T05:18:01;2.75;;;2.15;;
13469;SDS011;6807;48.682;9.032;2023-04-24T05:20:28;2.10;;;1.85;;
13469;SDS011;6807;48.682;9.032;2023-04-24T05:22:56;2.35;;;2.15;;
13469;SDS011;6807;48.682;9.032;2023-04-24T05:25:24;2.22;;;2.05;;
13469;SDS011;6807;48.682;9.032;2023-04-24T05:27:51;2.63;;;2.17;;
13469;SDS011;6807;48.682;9.032;2023-04-24T05:30:18;2.40;;;2.20;;
13469;SDS011;6807;48.682;9.032;2023-04-24T05:32:45;2.42;;;2.17;;
13469;SDS011;6807;48.682;9.032;2023-04-24T05:35:12;2.70;;;2.50;;
13469;SDS011;6807;48.682;9.032;2023-04-24T05:37:39;3.50;;;2.30;;
13469;SDS011;6807;48.682;9.032;2023-04-24T05:40:09;2.78;;;2.30;;
13469;SDS011;6807;48.682;9.032;2023-04-24T05:42:37;2.25;;;2.05;;
13469;SDS011;6807;48.682;9.032;2023-04-24T05:45:04;2.20;;;2.00;;
13469;SDS011;6807;48.682;9.032;2023-04-24T05:47:41;2.35;;;1.88;;
13469;SDS011;6807;48.682;9.032;2023-04-24T05:50:13;2.92;;;2.20;;
13469;SDS011;6807;48.682;9.032;2023-04-24T05:52:41;4.28;;;2.00;;
13469;SDS011;6807;48.682;9.032;2023-04-24T05:55:10;2.40;;;2.00;;
13469;SDS011;6807;48.682;9.032;2023-04-24T05:57:37;2.60;;;2.40;;
13469;SDS011;6807;48.682;9.032;2023-04-24T06:00:04;4.05;;;2.47;;
13469;SDS011;6807;48.682;9.032;2023-04-24T06:02:33;2.35;;;2.17;;
13469;SDS011;6807;48.682;9.032;2023-04-24T06:05:00;2.95;;;2.40;;
13469;SDS011;6807;48.682;9.032;2023-04-24T06:07:27;2.72;;;2.53;;
13469;SDS011;6807;48.682;9.032;2023-04-24T06:09:53;2.88;;;2.42;;
13469;SDS011;6807;48.682;9.032;2023-04-24T06:12:22;4.55;;;2.58;;
13469;SDS011;6807;48.682;9.032;2023-04-24T06:14:49;3.03;;;2.40;;
13469;SDS011;6807;48.682;9.032;2023-04-24T06:17:16;3.13;;;2.22;;
13469;SDS011;6807;48.682;9.032;2023-04-24T06:19:43;2.13;;;1.90;;
13469;SDS011;6807;48.682;9.032;2023-04-24T06:22:10;2.13;;;2.03;;
13469;SDS011;6807;48.682;9.032;2023-04-24T06:24:37;2.25;;;2.00;;
13469;SDS011;6807;48.682;9.032;2023-04-24T06:27:06;2.28;;;2.08;;
13469;SDS011;6807;48.682;9.032;2023-04-24T06:29:34;2.08;;;1.90;;
13469;SDS011;6807;48.682;9.032;2023-04-24T06:32:02;2.22;;;1.92;;
13469;SDS011;6807;48.682;9.032;2023-04-24T06:34:29;3.90;;;1.85;;
13469;SDS011;6807;48.682;9.032;2023-04-24T06:36:57;2.97;;;1.70;;
13469;SDS011;6807;48.682;9.032;2023-04-24T06:39:24;2.25;;;2.05;;
13469;SDS011;6807;48.682;9.032;2023-04-24T06:41:51;2.05;;;1.88;;
13469;SDS011;6807;48.682;9.032;2023-04-24T06:44:18;2.40;;;1.77;;
13469;SDS011;6807;48.682;9.032;2023-04-24T06:46:46;2.30;;;2.00;;
13469;SDS011;6807;48.682;9.032;2023-04-24T06:49:13;2.70;;;2.25;;
13469;SDS011;6807;48.682;9.032;2023-04-24T06:51:41;3.47;;;1.80;;
13469;SDS011;6807;48.682;9.032;2023-04-24T06:54:08;2.20;;;1.95;;
13469;SDS011;6807;48.682;9.032;2023-04-24T06:56:36;2.47;;;2.10;;
13469;SDS011;6807;48.682;9.032;2023-04-24T06:59:03;3.60;;;2.00;;
13469;SDS011;6807;48.682;9.032;2023-04-24T07:01:30;2.20;;;1.80;;
13469;SDS011;6807;48.682;9.032;2023-04-24T07:03:58;2.58;;;1.95;;
13469;SDS011;6807;48.682;9.032;2023-04-24T07:06:25;2.03;;;1.83;;
13469;SDS011;6807;48.682;9.032;2023-04-24T07:08:52;1.77;;;1.67;;
13469;SDS011;6807;48.682;9.032;2023-04-24T07:11:20;1.98;;;1.83;;
13469;SDS011;6807;48.682;9.032;2023-04-24T07:13:48;3.47;;;1.52;;
13469;SDS011;6807;48.682;9.032;2023-04-24T07:16:15;1.85;;;1.67;;
13469;SDS011;6807;48.682;9.032;2023-04-24T07:18:42;1.67;;;1.40;;
13469;SDS011;6807;48.682;9.032;2023-04-24T07:21:10;1.48;;;1.38;;
13469;SDS011;6807;48.682;9.032;2023-04-24T07:23:37;3.40;;;1.80;;
13469;SDS011;6807;48.682;9.032;2023-04-24T07:26:06;2.40;;;1.80;;
13469;SDS011;6807;48.682;9.032;2023-04-24T07:28:33;1.80;;;1.70;;
13469;SDS011;6807;48.682;9.032;2023-04-24T07:31:00;1.70;;;1.60;;
13469;SDS011;6807;48.682;9.032;2023-04-24T07:33:27;2.13;;;1.45;;
13469;SDS011;6807;48.682;9.032;2023-04-24T07:35:54;1.77;;;1.67;;
13469;SDS011;6807;48.682;9.032;2023-04-24T07:38:22;1.60;;;1.50;;
13469;SDS011;6807;48.682;9.032;2023-04-24T07:40:50;1.50;;;1.40;;
13469;SDS011;6807;48.682;9.032;2023-04-24T07:43:19;1.55;;;1.45;;
13469;SDS011;6807;48.682;9.032;2023-04-24T07:45:46;2.20;;;1.70;;
13469;SDS011;6807;48.682;9.032;2023-04-24T07:48:13;2.60;;;1.40;;
13469;SDS011;6807;48.682;9.032;2023-04-24T07:50:41;3.08;;;1.60;;
13469;SDS011;6807;48.682;9.032;2023-04-24T07:53:08;1.50;;;1.40;;
13469;SDS011;6807;48.682;9.032;2023-04-24T07:55:36;2.10;;;1.58;;
13469;SDS011;6807;48.682;9.032;2023-04-24T07:58:03;1.45;;;1.35;;
13469;SDS011;6807;48.682;9.032;2023-04-24T08:00:30;3.38;;;1.80;;
13469;SDS011;6807;48.682;9.032;2023-04-24T08:02:57;1.50;;;1.40;;
13469;SDS011;6807;48.682;9.032;2023-04-24T08:05:24;1.98;;;1.48;;
13469;SDS011;6807;48.682;9.032;2023-04-24T08:07:53;1.55;;;1.45;;
13469;SDS011;6807;48.682;9.032;2023-04-24T08:10:20;1.60;;;1.50;;
13469;SDS011;6807;48.682;9.032;2023-04-24T08:12:49;1.70;;;1.60;;
13469;SDS011;6807;48.682;9.032;2023-04-24T08:15:16;1.88;;;1.60;;
13469;SDS011;6807;48.682;9.032;2023-04-24T08:17:43;1.52;;;1.40;;
13469;SDS011;6807;48.682;9.032;2023-04-24T08:20:10;2.85;;;1.70;;
13469;SDS011;6807;48.682;9.032;2023-04-24T08:22:38;2.40;;;1.80;;
13469;SDS011;6807;48.682;9.032;2023-04-24T08:25:06;1.55;;;1.45;;
13469;SDS011;6807;48.682;9.032;2023-04-24T08:27:34;1.98;;;1.60;;
13469;SDS011;6807;48.682;9.032;2023-04-24T08:30:03;1.60;;;1.50;;
13469;SDS011;6807;48.682;9.032;2023-04-24T08:32:31;2.65;;;1.60;;
13469;SDS011;6807;48.682;9.032;2023-04-24T08:34:58;4.60;;;1.92;;
13469;SDS011;6807;48.682;9.032;2023-04-24T08:37:25;2.13;;;1.77;;
13469;SDS011;6807;48.682;9.032;2023-04-24T08:39:53;2.63;;;1.83;;
13469;SDS011;6807;48.682;9.032;2023-04-24T08:42:20;1.50;;;1.40;;
13469;SDS011;6807;48.682;9.032;2023-04-24T08:44:48;2.10;;;1.58;;
13469;SDS011;6807;48.682;9.032;2023-04-24T08:47:17;1.80;;;1.70;;
13469;SDS011;6807;48.682;9.032;2023-04-24T08:49:46;2.15;;;1.83;;
13469;SDS011;6807;48.682;9.032;2023-04-24T08:52:15;1.70;;;1.60;;
13469;SDS011;6807;48.682;9.032;2023-04-24T08:54:44;2.85;;;1.70;;
13469;SDS011;6807;48.682;9.032;2023-04-24T08:57:12;1.90;;;1.80;;
13469;SDS011;6807;48.682;9.032;2023-04-24T08:59:42;1.70;;;1.60;;
13469;SDS011;6807;48.682;9.032;2023-04-24T09:02:10;2.83;;;1.80;;
13469;SDS011;6807;48.682;9.032;2023-04-24T09:04:40;2.88;;;1.80;;
13469;SDS011;6807;48.682;9.032;2023-04-24T09:07:07;4.88;;;1.85;;
13469;SDS011;6807;48.682;9.032;2023-04-24T09:09:36;3.42;;;1.70;;
13469;SDS011;6807;48.682;9.032;2023-04-24T09:12:05;4.15;;;2.30;;
13469;SDS011;6807;48.682;9.032;2023-04-24T09:14:34;1.63;;;1.52;;
13469;SDS011;6807;48.682;9.032;2023-04-24T09:17:04;2.35;;;1.83;;
13469;SDS011;6807;48.682;9.032;2023-04-24T09:19:33;2.53;;;1.70;;
13469;SDS011;6807;48.682;9.032;2023-04-24T09:22:01;3.22;;;1.60;;
13469;SDS011;6807;48.682;9.032;2023-04-24T09:24:31;1.40;;;1.30;;
13469;SDS011;6807;48.682;9.032;2023-04-24T09:26:58;2.13;;;1.63;;
13469;SDS011;6807;48.682;9.032;2023-04-24T09:29:26;1.52;;;1.42;;
13469;SDS011;6807;48.682;9.032;2023-04-24T09:31:54;1.40;;;1.30;;
13469;SDS011;6807;48.682;9.032;2023-04-24T09:34:21;2.72;;;1.65;;
13469;SDS011;6807;48.682;9.032;2023-04-24T09:36:49;1.83;;;1.58;;
13469;SDS011;6807;48.682;9.032;2023-04-24T09:39:18;2.90;;;1.30;;
13469;SDS011;6807;48.682;9.032;2023-04-24T09:41:46;1.52;;;1.42;;
13469;SDS011;6807;48.682;9.032;2023-04-24T09:44:15;2.40;;;1.70;;
13469;SDS011;6807;48.682;9.032;2023-04-24T09:46:45;1.30;;;1.15;;
13469;SDS011;6807;48.682;9.032;2023-04-24T09:49:20;1.67;;;1.20;;
13469;SDS011;6807;48.682;9.032;2023-04-24T09:51:48;1.63;;;1.35;;
13469;SDS011;6807;48.682;9.032;2023-04-24T09:54:15;1.20;;;1.17;;
13469;SDS011;6807;48.682;9.032;2023-04-24T09:56:46;1.70;;;1.38;;
13469;SDS011;6807;48.682;9.032;2023-04-24T09:59:15;1.50;;;1.40;;
13469;SDS011;6807;48.682;9.032;2023-04-24T10:01:42;1.55;;;1.45;;
13469;SDS011;6807;48.682;9.032;2023-04-24T10:04:24;1.65;;;1.48;;
13469;SDS011;6807;48.682;9.032;2023-04-24T10:07:02;1.50;;;1.30;;
13469;SDS011;6807;48.682;9.032;2023-04-24T10:09:36;1.55;;;1.45;;
13469;SDS011;6807;48.682;9.032;2023-04-24T10:12:03;2.58;;;1.30;;
13469;SDS011;6807;48.682;9.032;2023-04-24T10:14:30;2.13;;;1.50;;
13469;SDS011;6807;48.682;9.032;2023-04-24T10:16:57;1.67;;;1.40;;
13469;SDS011;6807;48.682;9.032;2023-04-24T10:19:25;1.48;;;1.30;;
13469;SDS011;6807;48.682;9.032;2023-04-24T10:21:52;1.50;;;1.40;;
13469;SDS011;6807;48.682;9.032;2023-04-24T10:24:20;1.58;;;1.48;;
13469;SDS011;6807;48.682;9.032;2023-04-24T10:26:49;1.30;;;1.20;;
13469;SDS011;6807;48.682;9.032;2023-04-24T10:29:16;2.38;;;1.30;;
13469;SDS011;6807;48.682;9.032;2023-04-24T10:31:44;1.13;;;1.13;;
13469;SDS011;6807;48.682;9.032;2023-04-24T10:34:11;1.27;;;1.20;;
13469;SDS011;6807;48.682;9.032;2023-04-24T10:36:41;1.10;;;1.10;;
13469;SDS011;6807;48.682;9.032;2023-04-24T10:39:12;1.52;;;1.25;;
13469;SDS011;6807;48.682;9.032;2023-04-24T10:41:40;2.03;;;1.40;;
13469;SDS011;6807;48.682;9.032;2023-04-24T10:44:09;1.30;;;1.15;;
13469;SDS011;6807;48.682;9.032;2023-04-24T10:46:39;1.48;;;1.23;;
13469;SDS011;6807;48.682;9.032;2023-04-24T10:49:10;1.85;;;1.40;;
13469;SDS011;6807;48.682;9.032;2023-04-24T10:51:47;1.50;;;1.40;;
13469;SDS011;6807;48.682;9.032;2023-04-24T10:54:25;2.00;;;1.50;;
13469;SDS011;6807;48.682;9.032;2023-04-24T10:56:53;1.13;;;1.13;;
13469;SDS011;6807;48.682;9.032;2023-04-24T11:03:26;1.63;;;1.48;;
13469;SDS011;6807;48.682;9.032;2023-04-24T11:05:58;3.47;;;1.70;;
13469;SDS011;6807;48.682;9.032;2023-04-24T11:08:28;1.85;;;1.42;;
13469;SDS011;6807;48.682;9.032;2023-04-24T11:10:59;1.48;;;1.38;;
13469;SDS011;6807;48.682;9.032;2023-04-24T11:16:26;1.60;;;1.50;;
13469;SDS011;6807;48.682;9.032;2023-04-24T11:19:01;2.45;;;1.60;;
13469;SDS011;6807;48.682;9.032;2023-04-24T11:21:33;1.58;;;1.48;;
13469;SDS011;6807;48.682;9.032;2023-04-24T11:24:26;1.58;;;1.48;;
13469;SDS011;6807;48.682;9.032;2023-04-24T11:26:56;1.40;;;1.30;;
13469;SDS011;6807;48.682;9.032;2023-04-24T11:29:38;2.75;;;1.63;;
13469;SDS011;6807;48.682;9.032;2023-04-24T11:32:16;2.65;;;1.48;;
13469;SDS011;6807;48.682;9.032;2023-04-24T11:34:52;1.80;;;1.42;;
13469;SDS011;6807;48.682;9.032;2023-04-24T11:37:21;2.13;;;1.27;;
13469;SDS011;6807;48.682;9.032;2023-04-24T11:39:50;1.10;;;1.10;;
13469;SDS011;6807;48.682;9.032;2023-04-24T11:42:18;1.92;;;1.40;;
13469;SDS011;6807;48.682;9.032;2023-04-24T11:44:47;1.63;;;1.52;;
13469;SDS011;6807;48.682;9.032;2023-04-24T11:47:15;2.67;;;1.42;;
13469;SDS011;6807;48.682;9.032;2023-04-24T11:49:51;1.60;;;1.40;;
13469;SDS011;6807;48.682;9.032;2023-04-24T11:52:18;1.52;;;1.33;;
13469;SDS011;6807;48.682;9.032;2023-04-24T11:54:48;1.65;;;1.55;;
13469;SDS011;6807;48.682;9.032;2023-04-24T11:57:16;1.77;;;1.67;;
13469;SDS011;6807;48.682;9.032;2023-04-24T11:59:44;2.38;;;1.60;;
13469;SDS011;6807;48.682;9.032;2023-04-24T12:02:19;1.95;;;1.75;;
13469;SDS011;6807;48.682;9.032;2023-04-24T12:04:47;1.50;;;1.40;;
13469;SDS011;6807;48.682;9.032;2023-04-24T12:07:16;1.40;;;1.30;;
13469;SDS011;6807;48.682;9.032;2023-04-24T12:09:43;1.73;;;1.63;;
13469;SDS011;6807;48.682;9.032;2023-04-24T12:12:11;2.17;;;1.60;;
13469;SDS011;6807;48.682;9.032;2023-04-24T12:14:43;2.53;;;1.65;;
13469;SDS011;6807;48.682;9.032;2023-04-24T12:17:11;2.47;;;1.50;;
13469;SDS011;6807;48.682;9.032;2023-04-24T12:19:44;2.35;;;1.60;;
13469;SDS011;6807;48.682;9.032;2023-04-24T12:22:12;2.00;;;1.80;;
13469;SDS011;6807;48.682;9.032;2023-04-24T12:27:23;2.05;;;1.80;;
13469;SDS011;6807;48.682;9.032;2023-04-24T12:29:51;1.58;;;1.48;;
13469;SDS011;6807;48.682;9.032;2023-04-24T12:32:18;2.13;;;1.40;;
13469;SDS011;6807;48.682;9.032;2023-04-24T12:34:45;1.52;;;1.42;;
13469;SDS011;6807;48.682;9.032;2023-04-24T12:37:12;1.40;;;1.30;;
13469;SDS011;6807;48.682;9.032;2023-04-24T12:39:39;1.45;;;1.35;;
13469;SDS011;6807;48.682;9.032;2023-04-24T12:42:25;1.67;;;1.30;;
13469;SDS011;6807;48.682;9.032;2023-04-24T12:44:55;1.38;;;1.30;;
13469;SDS011;6807;48.682;9.032;2023-04-24T12:47:24;2.13;;;1.45;;
13469;SDS011;6807;48.682;9.032;2023-04-24T12:49:51;2.00;;;1.38;;
13469;SDS011;6807;48.682;9.032;2023-04-24T12:52:20;1.60;;;1.50;;
13469;SDS011;6807;48.682;9.032;2023-04-24T12:54:47;1.60;;;1.50;;
13469;SDS011;6807;48.682;9.032;2023-04-24T12:57:15;1.70;;;1.60;;
13469;SDS011;6807;48.682;9.032;2023-04-24T12:59:42;1.83;;;1.73;;
13469;SDS011;6807;48.682;9.032;2023-04-24T13:02:09;1.52;;;1.40;;
13469;SDS011;6807;48.682;9.032;2023-04-24T13:04:37;3.80;;;1.70;;
13469;SDS011;6807;48.682;9.032;2023-04-24T13:07:04;1.65;;;1.55;;
13469;SDS011;6807;48.682;9.032;2023-04-24T13:09:31;2.50;;;1.77;;
13469;SDS011;6807;48.682;9.032;2023-04-24T13:12:00;1.70;;;1.60;;
13469;SDS011;6807;48.682;9.032;2023-04-24T13:14:28;2.65;;;1.70;;
13469;SDS011;6807;48.682;9.032;2023-04-24T13:16:55;2.20;;;1.70;;
13469;SDS011;6807;48.682;9.032;2023-04-24T13:19:23;2.08;;;1.80;;
13469;SDS011;6807;48.682;9.032;2023-04-24T13:21:50;3.22;;;1.75;;
13469;SDS011;6807;48.682;9.032;2023-04-24T13:24:17;2.10;;;1.90;;
13469;SDS011;6807;48.682;9.032;2023-04-24T13:26:45;3.63;;;1.90;;
13469;SDS011;6807;48.682;9.032;2023-04-24T13:29:12;2.22;;;2.05;;
13469;SDS011;6807;48.682;9.032;2023-04-24T13:31:40;2.35;;;1.85;;
13469;SDS011;6807;48.682;9.032;2023-04-24T13:34:07;1.75;;;1.65;;
13469;SDS011;6807;48.682;9.032;2023-04-24T13:36:33;2.20;;;1.83;;
13469;SDS011;6807;48.682;9.032;2023-04-24T13:39:00;1.90;;;1.80;;
13469;SDS011;6807;48.682;9.032;2023-04-24T13:41:29;1.75;;;1.65;;
13469;SDS011;6807;48.682;9.032;2023-04-24T13:43:56;3.38;;;2.13;;
13469;SDS011;6807;48.682;9.032;2023-04-24T13:46:23;2.40;;;2.08;;
13469;SDS011;6807;48.682;9.032;2023-04-24T13:48:51;2.28;;;2.08;;
13469;SDS011;6807;48.682;9.032;2023-04-24T13:51:18;1.98;;;1.88;;
13469;SDS011;6807;48.682;9.032;2023-04-24T13:53:45;2.40;;;2.20;;
13469;SDS011;6807;48.682;9.032;2023-04-24T13:56:12;2.45;;;1.90;;
13469;SDS011;6807;48.682;9.032;2023-04-24T13:58:39;2.80;;;2.00;;
13469;SDS011;6807;48.682;9.032;2023-04-24T14:01:06;2.30;;;2.10;;
13469;SDS011;6807;48.682;9.032;2023-04-24T14:03:33;2.92;;;2.17;;
13469;SDS011;6807;48.682;9.032;2023-04-24T14:06:01;3.72;;;2.13;;
13469;SDS011;6807;48.682;9.032;2023-04-24T14:08:28;2.63;;;2.20;;
13469;SDS011;6807;48.682;9.032;2023-04-24T14:10:55;2.80;;;2.60;;
13469;SDS011;6807;48.682;9.032;2023-04-24T14:13:22;3.03;;;2.22;;
13469;SDS011;6807;48.682;9.032;2023-04-24T14:15:50;3.28;;;2.25;;
13469;SDS011;6807;48.682;9.032;2023-04-24T14:18:18;2.30;;;2.10;;
13469;SDS011;6807;48.682;9.032;2023-04-24T14:20:45;2.22;;;2.05;;
13469;SDS011;6807;48.682;9.032;2023-04-24T14:23:13;2.58;;;2.38;;
13469;SDS011;6807;48.682;9.032;2023-04-24T14:25:40;3.38;;;3.00;;
13469;SDS011;6807;48.682;9.032;2023-04-24T14:28:07;2.67;;;2.47;;
13469;SDS011;6807;48.682;9.032;2023-04-24T14:30:34;2.75;;;2.40;;
13469;SDS011;6807;48.682;9.032;2023-04-24T14:33:02;3.00;;;2.50;;
13469;SDS011;6807;48.682;9.032;2023-04-24T14:35:29;4.20;;;2.00;;
13469;SDS011;6807;48.682;9.032;2023-04-24T14:37:59;2.72;;;2.53;;
13469;SDS011;6807;48.682;9.032;2023-04-24T14:40:27;2.50;;;2.30;;
13469;SDS011;6807;48.682;9.032;2023-04-24T14:42:54;2.47;;;2.25;;
13469;SDS011;6807;48.682;9.032;2023-04-24T14:45:22;4.57;;;2.85;;
13469;SDS011;6807;48.682;9.032;2023-04-24T14:47:50;2.15;;;1.95;;
13469;SDS011;6807;48.682;9.032;2023-04-24T14:50:17;2.75;;;2.20;;
13469;SDS011;6807;48.682;9.032;2023-04-24T14:52:44;2.30;;;2.00;;
13469;SDS011;6807;48.682;9.032;2023-04-24T14:55:11;3.20;;;2.00;;
13469;SDS011;6807;48.682;9.032;2023-04-24T14:57:39;2.45;;;2.00;;
13469;SDS011;6807;48.682;9.032;2023-04-24T15:00:07;2.03;;;1.83;;
13469;SDS011;6807;48.682;9.032;2023-04-24T15:02:35;3.33;;;1.92;;
13469;SDS011;6807;48.682;9.032;2023-04-24T15:05:07;2.33;;;1.60;;
13469;SDS011;6807;48.682;9.032;2023-04-24T15:07:36;1.80;;;1.70;;
13469;SDS011;6807;48.682;9.032;2023-04-24T15:10:06;2.33;;;2.10;;
13469;SDS011;6807;48.682;9.032;2023-04-24T15:12:51;3.70;;;1.83;;
13469;SDS011;6807;48.682;9.032;2023-04-24T15:15:21;2.00;;;1.80;;